Time;durP1;ratioP1;P1;durP2;ratioP2;P2;SDS_P1;SDS_P2;PMS_P1;PMS_P2;Temp;Humidity;BMP_temperature;BMP_pressure;BME280_temperature;BME280_humidity;BME280_pressure;Samples;Min_cycle;Max_cycle;Signal;HPM_P1;HPM_P2
2022/01/02 00:01:29;;;;;;;10.85;7.07;;;11.80;89.70;;;;;;5114329;28;20460;-57
2022/01/02 00:04:00;;;;;;;9.60;5.90;;;11.80;89.90;;;;;;5096127;28;20031;-53
2022/01/02 00:06:29;;;;;;;11.80;6.18;;;11.80;90.00;;;;;;5094666;28;20427;-53
2022/01/02 00:09:04;;;;;;;12.13;7.72;;;11.80;90.00;;;;;;5109499;28;20059;-63
2022/01/02 00:11:32;;;;;;;15.13;6.70;;;11.70;90.00;;;;;;5096399;28;20031;-54
2022/01/02 00:14:13;;;;;;;12.05;7.13;;;11.60;90.20;;;;;;5110366;27;20365;-52
2022/01/02 00:16:39;;;;;;;10.00;6.35;;;11.60;90.40;;;;;;5082542;28;20054;-51
2022/01/02 00:19:29;;;;;;;8.23;5.88;;;11.60;90.50;;;;;;5110390;28;20085;-52
2022/01/02 00:22:00;;;;;;;10.00;6.38;;;11.60;90.60;;;;;;5115446;27;20024;-49
2022/01/02 00:24:29;;;;;;;10.77;6.43;;;11.60;90.70;;;;;;5078767;28;20028;-53
2022/01/02 00:26:58;;;;;;;16.45;8.40;;;11.50;90.80;;;;;;5086659;28;20420;-62
2022/01/02 00:29:26;;;;;;;13.40;7.43;;;11.50;90.80;;;;;;5108944;28;20038;-60
2022/01/02 00:31:54;;;;;;;9.48;6.30;;;11.50;90.90;;;;;;5090868;28;20165;-56
2022/01/02 00:34:24;;;;;;;13.57;6.72;;;11.50;91.00;;;;;;5096056;28;20032;-54
2022/01/02 00:36:51;;;;;;;9.50;6.57;;;11.50;91.10;;;;;;5101821;28;20023;-54
2022/01/02 00:39:17;;;;;;;9.90;6.70;;;11.50;91.10;;;;;;5107432;28;20422;-51
2022/01/02 00:41:57;;;;;;;10.10;6.90;;;11.50;91.20;;;;;;5111804;28;20059;-52
2022/01/02 00:44:41;;;;;;;11.95;7.07;;;11.50;91.20;;;;;;5109702;28;20181;-52
2022/01/02 00:47:20;;;;;;;11.52;7.30;;;11.50;91.30;;;;;;5109000;28;20034;-55
2022/01/02 00:50:05;;;;;;;15.25;7.18;;;11.50;91.40;;;;;;5097981;28;20031;-55
2022/01/02 00:52:40;;;;;;;10.82;7.18;;;11.50;91.30;;;;;;5107945;28;20092;-51
2022/01/02 00:55:10;;;;;;;11.07;6.32;;;11.50;91.30;;;;;;5096833;28;20020;-53
2022/01/02 00:57:38;;;;;;;;;;;11.50;91.30;;;;;;5085950;28;20040;-54
2022/01/02 01:00:14;;;;;;;12.93;6.65;;;11.50;91.30;;;;;;5095409;28;19903;-49
2022/01/02 01:02:59;;;;;;;12.70;6.63;;;11.50;91.30;;;;;;5110717;28;20106;-50
2022/01/02 01:05:45;;;;;;;10.07;6.80;;;11.50;91.30;;;;;;5099693;28;20028;-59
2022/01/02 01:08:12;;;;;;;9.68;6.82;;;11.50;91.30;;;;;;5107003;28;20028;-55
2022/01/02 01:10:40;;;;;;;10.90;6.00;;;11.50;91.30;;;;;;5114777;28;20080;-52
2022/01/02 01:13:11;;;;;;;12.48;7.57;;;11.50;91.20;;;;;;5093940;27;20031;-51
2022/01/02 01:15:38;;;;;;;10.27;7.28;;;11.50;91.30;;;;;;5114569;28;20356;-48
2022/01/02 01:18:06;;;;;;;12.73;7.00;;;11.50;91.30;;;;;;5082170;28;20023;-51
2022/01/02 01:20:39;;;;;;;11.05;6.80;;;11.50;91.20;;;;;;5111235;28;20051;-54
2022/01/02 01:23:08;;;;;;;9.52;6.55;;;11.50;91.30;;;;;;5096631;28;20081;-53
2022/01/02 01:25:38;;;;;;;12.38;7.30;;;11.50;91.20;;;;;;5109097;28;20449;-58
2022/01/02 01:28:05;;;;;;;10.25;6.38;;;11.40;91.20;;;;;;5108297;28;20043;-54
2022/01/02 01:30:32;;;;;;;9.02;7.60;;;11.50;91.20;;;;;;5115239;28;20031;-57
2022/01/02 01:32:58;;;;;;;9.88;6.55;;;11.50;91.20;;;;;;5103695;28;20155;-50
2022/01/02 01:35:25;;;;;;;11.88;6.70;;;11.50;91.20;;;;;;5109120;28;20088;-52
2022/01/02 01:37:52;;;;;;;9.18;6.05;;;11.50;91.20;;;;;;5103786;28;20036;-56
2022/01/02 01:40:20;;;;;;;11.43;7.63;;;11.40;91.20;;;;;;5094230;28;20062;-49
2022/01/02 01:42:57;;;;;;;11.25;7.45;;;11.40;91.20;;;;;;5101300;28;20032;-53
2022/01/02 01:45:28;;;;;;;11.73;6.18;;;11.40;91.20;;;;;;5108476;28;20027;-53
2022/01/02 01:47:58;;;;;;;11.52;7.28;;;11.40;91.20;;;;;;5109644;28;20031;-50
2022/01/02 01:50:31;;;;;;;9.63;6.50;;;11.40;91.20;;;;;;5096169;28;20027;-49
2022/01/02 01:52:57;;;;;;;10.05;6.80;;;11.40;91.20;;;;;;5103242;28;20107;-51
2022/01/02 01:55:24;;;;;;;12.38;7.00;;;11.40;91.20;;;;;;5097240;28;20421;-51
2022/01/02 01:57:54;;;;;;;11.95;7.07;;;11.40;91.20;;;;;;5111174;28;20023;-53
2022/01/02 02:00:22;;;;;;;14.02;8.30;;;11.40;91.20;;;;;;5106536;28;20020;-50
2022/01/02 02:02:49;;;;;;;12.48;7.50;;;11.40;91.30;;;;;;5085046;28;20079;-48
2022/01/02 02:05:16;;;;;;;13.90;8.45;;;11.40;91.20;;;;;;5101384;28;20032;-49
2022/01/02 02:07:45;;;;;;;10.43;7.05;;;11.40;91.20;;;;;;5094189;28;20036;-53
2022/01/02 02:10:33;;;;;;;10.35;7.10;;;11.40;91.30;;;;;;5095309;28;20024;-49
2022/01/02 02:13:06;;;;;;;11.98;6.95;;;11.30;91.30;;;;;;5095720;28;20166;-48
2022/01/02 02:15:32;;;;;;;14.00;7.55;;;11.30;91.40;;;;;;5114272;28;20156;-49
2022/01/02 02:17:58;;;;;;;12.27;7.15;;;11.40;91.30;;;;;;5109926;28;20108;-47
2022/01/02 02:20:43;;;;;;;11.68;7.18;;;11.40;91.30;;;;;;5123364;27;20036;-48
2022/01/02 02:23:14;;;;;;;13.25;7.53;;;11.40;91.40;;;;;;5105806;27;20487;-50
2022/01/02 02:25:43;;;;;;;14.10;6.82;;;11.30;91.40;;;;;;5104532;28;20032;-52
2022/01/02 02:28:13;;;;;;;16.73;7.30;;;11.30;91.40;;;;;;5093040;28;20035;-46
2022/01/02 02:30:43;;;;;;;14.85;7.93;;;11.40;91.40;;;;;;5109767;28;20085;-50
2022/01/02 02:33:11;;;;;;;17.63;8.57;;;11.40;91.40;;;;;;5095079;28;20161;-51
2022/01/02 02:35:42;;;;;;;15.73;8.35;;;11.30;91.40;;;;;;5094957;28;20044;-46
2022/01/02 02:38:10;;;;;;;17.75;8.10;;;11.40;91.50;;;;;;5099362;28;20028;-49
2022/01/02 02:40:38;;;;;;;12.02;7.70;;;11.30;91.50;;;;;;5088811;28;20032;-46
2022/01/02 02:52:18;;;;;;;19.80;9.30;;;11.30;91.70;;;;;;5108370;28;20093;-46
2022/01/02 02:54:25;;;;;;;15.02;8.80;;;11.30;91.70;;;;;;5093053;28;20047;-49
2022/01/02 02:56:59;;;;;;;12.65;8.77;;;11.30;91.70;;;;;;5111996;28;20035;-47
2022/01/02 02:59:29;;;;;;;17.70;10.50;;;11.30;91.80;;;;;;5109634;28;20013;-49
2022/01/02 03:01:55;;;;;;;14.27;10.05;;;11.30;91.80;;;;;;5100205;28;20027;-46
2022/01/02 03:04:23;;;;;;;12.70;9.52;;;11.20;91.80;;;;;;5084092;28;20447;-46
2022/01/02 03:06:51;;;;;;;12.95;10.13;;;11.20;91.90;;;;;;5090336;28;20031;-46
2022/01/02 03:10:02;;;;;;;15.45;10.65;;;11.20;91.90;;;;;;5094274;28;20039;-48
2022/01/02 03:12:11;;;;;;;14.77;10.20;;;11.20;91.90;;;;;;5079045;28;20093;-46
2022/01/02 03:14:38;;;;;;;12.57;10.18;;;11.20;91.90;;;;;;5100186;28;20039;-46
2022/01/02 03:17:04;;;;;;;17.85;11.20;;;11.20;91.90;;;;;;5113347;28;20043;-47
2022/01/02 03:19:33;;;;;;;13.52;9.95;;;11.20;91.90;;;;;;5103476;28;20026;-50
2022/01/02 03:22:00;;;;;;;16.25;11.52;;;11.20;91.90;;;;;;5102103;28;20448;-46
2022/01/02 03:24:27;;;;;;;21.27;11.27;;;11.30;92.00;;;;;;5087547;28;20031;-48
2022/01/02 03:26:54;;;;;;;14.95;10.68;;;11.30;92.00;;;;;;5091669;28;20429;-50
2022/01/02 03:29:21;;;;;;;17.33;11.27;;;11.30;92.00;;;;;;5106812;28;20032;-47
2022/01/02 03:31:47;;;;;;;16.98;11.90;;;11.30;92.00;;;;;;5093964;28;20075;-48
2022/01/02 03:34:14;;;;;;;16.33;11.40;;;11.30;91.90;;;;;;5095181;28;20032;-49
2022/01/02 03:36:41;;;;;;;23.50;12.75;;;11.30;92.00;;;;;;5097277;28;20077;-48
2022/01/02 03:39:08;;;;;;;17.60;11.02;;;11.30;92.00;;;;;;5111839;28;20502;-51
2022/01/02 03:41:39;;;;;;;17.08;11.25;;;11.30;92.00;;;;;;5062410;28;20485;-48
2022/01/02 03:44:06;;;;;;;19.10;12.07;;;11.30;91.90;;;;;;5114812;28;20079;-47
2022/01/02 03:46:32;;;;;;;18.98;12.50;;;11.30;91.90;;;;;;5079076;28;20071;-51
2022/01/02 03:48:59;;;;;;;16.13;10.90;;;11.30;91.90;;;;;;5098154;28;20036;-56
2022/01/02 03:51:26;;;;;;;17.70;11.25;;;11.30;92.00;;;;;;5096900;28;20033;-58
2022/01/02 03:53:53;;;;;;;16.45;11.88;;;11.30;92.10;;;;;;5079152;28;20051;-60
2022/01/02 03:56:19;;;;;;;17.38;11.75;;;11.30;92.10;;;;;;5100726;28;20059;-60
2022/01/02 03:58:46;;;;;;;15.65;10.05;;;11.30;92.10;;;;;;5097127;28;20434;-60
2022/01/02 04:01:13;;;;;;;14.60;10.13;;;11.30;92.20;;;;;;5092376;28;20114;-59
2022/01/02 04:03:39;;;;;;;14.05;10.20;;;11.30;92.30;;;;;;5098546;28;20394;-57
2022/01/02 04:06:06;;;;;;;15.63;11.52;;;11.30;92.30;;;;;;5111493;28;20106;-55
2022/01/02 04:08:33;;;;;;;14.05;10.52;;;11.30;92.40;;;;;;5101847;28;20039;-61
2022/01/02 04:10:59;;;;;;;14.75;10.73;;;11.20;92.40;;;;;;5078975;28;20040;-61
2022/01/02 04:13:26;;;;;;;14.18;10.20;;;11.30;92.40;;;;;;5109264;27;20081;-61
2022/01/02 04:15:54;;;;;;;12.07;10.50;;;11.30;92.50;;;;;;5098843;28;20035;-61
2022/01/02 04:18:21;;;;;;;13.88;10.95;;;11.30;92.50;;;;;;5103616;28;20365;-60
2022/01/02 04:20:49;;;;;;;13.32;9.40;;;11.30;92.50;;;;;;5106434;27;20466;-60
2022/01/02 04:23:15;;;;;;;15.27;10.27;;;11.30;92.60;;;;;;5115973;28;20043;-60
2022/01/02 04:25:43;;;;;;;14.40;10.90;;;11.30;92.60;;;;;;5106683;28;20073;-60
2022/01/02 04:28:14;;;;;;;12.98;10.32;;;11.30;92.60;;;;;;5107769;28;20055;-59
2022/01/02 04:30:41;;;;;;;12.55;10.80;;;11.30;92.60;;;;;;5103693;28;20032;-59
2022/01/02 04:33:13;;;;;;;10.50;9.13;;;11.30;92.70;;;;;;5106059;28;20028;-61
2022/01/02 04:35:40;;;;;;;13.10;9.93;;;11.20;92.70;;;;;;5097400;28;20034;-60
2022/01/02 04:38:05;;;;;;;10.60;8.93;;;11.20;92.70;;;;;;5087611;28;20345;-59
2022/01/02 04:40:32;;;;;;;10.93;9.13;;;11.20;92.70;;;;;;5096072;28;20039;-57
2022/01/02 04:42:57;;;;;;;13.35;9.52;;;11.20;92.80;;;;;;5104973;27;20035;-55
2022/01/02 04:45:24;;;;;;;9.70;8.48;;;11.20;92.80;;;;;;5086845;28;20561;-55
2022/01/02 04:47:51;;;;;;;11.45;9.13;;;11.20;92.80;;;;;;5098671;28;20120;-54
2022/01/02 04:50:20;;;;;;;11.18;8.85;;;11.20;92.80;;;;;;5096158;28;20058;-53
2022/01/02 04:52:47;;;;;;;12.63;8.85;;;11.20;92.80;;;;;;5098896;28;20055;-52
2022/01/02 04:55:13;;;;;;;14.23;9.70;;;11.20;92.80;;;;;;5104499;28;20034;-51
2022/01/02 04:57:40;;;;;;;12.68;9.77;;;11.20;92.70;;;;;;5084147;28;20031;-55
2022/01/02 05:00:10;;;;;;;14.63;11.77;;;11.20;92.80;;;;;;5116068;28;20020;-58
2022/01/02 05:02:37;;;;;;;;;;;11.10;92.80;;;;;;5109176;28;20032;-62
2022/01/02 05:05:04;;;;;;;11.65;9.85;;;11.10;92.80;;;;;;5095756;28;19929;-62
2022/01/02 05:07:31;;;;;;;11.32;10.13;;;11.10;92.80;;;;;;5090883;28;20100;-61
2022/01/02 05:09:59;;;;;;;18.92;10.48;;;11.10;92.80;;;;;;5114955;28;20467;-60
2022/01/02 05:12:26;;;;;;;10.88;9.65;;;11.10;92.80;;;;;;5084104;27;20035;-59
2022/01/02 05:14:53;;;;;;;10.70;9.38;;;11.10;92.90;;;;;;5116945;27;20055;-59
2022/01/02 05:17:20;;;;;;;10.73;8.90;;;11.00;92.90;;;;;;5114962;28;20084;-61
2022/01/02 05:19:47;;;;;;;12.77;9.88;;;11.00;93.00;;;;;;5102187;28;20023;-61
2022/01/02 05:22:14;;;;;;;11.45;8.90;;;11.10;93.00;;;;;;5115430;28;20099;-61
2022/01/02 05:24:41;;;;;;;10.82;8.90;;;11.10;93.00;;;;;;5111855;28;20032;-61
2022/01/02 05:27:07;;;;;;;11.35;9.65;;;11.10;93.00;;;;;;5100029;28;20369;-61
2022/01/02 05:29:34;;;;;;;10.60;9.50;;;11.10;93.10;;;;;;5107189;28;20326;-62
2022/01/02 05:32:05;;;;;;;11.02;9.65;;;11.00;93.10;;;;;;5112624;28;20035;-62
2022/01/02 05:34:34;;;;;;;12.77;10.45;;;11.10;93.10;;;;;;5078112;28;20472;-61
2022/01/02 05:37:01;;;;;;;13.48;10.02;;;11.10;93.10;;;;;;5096550;28;20088;-61
2022/01/02 05:39:27;;;;;;;12.52;9.90;;;11.10;93.20;;;;;;5113212;28;20028;-61
2022/01/02 05:41:54;;;;;;;15.18;10.70;;;11.10;93.20;;;;;;5096661;28;20024;-61
2022/01/02 05:44:22;;;;;;;12.23;10.27;;;11.10;93.30;;;;;;5114177;28;20055;-62
2022/01/02 05:46:48;;;;;;;11.90;10.63;;;11.10;93.30;;;;;;5094039;28;20031;-61
2022/01/02 05:49:14;;;;;;;14.20;10.95;;;11.10;93.40;;;;;;5114168;28;20032;-61
2022/01/02 05:51:41;;;;;;;16.40;11.25;;;11.10;93.40;;;;;;5095085;28;20090;-62
2022/01/02 05:54:10;;;;;;;13.07;10.88;;;11.10;93.40;;;;;;5076487;28;20063;-61
2022/01/02 05:56:37;;;;;;;15.23;10.52;;;11.10;93.40;;;;;;5104939;28;20112;-61
2022/01/02 05:59:02;;;;;;;14.55;11.52;;;11.10;93.40;;;;;;5080764;28;20036;-62
2022/01/02 06:01:28;;;;;;;17.70;12.45;;;11.10;93.40;;;;;;5094237;28;20032;-61
2022/01/02 06:03:54;;;;;;;20.23;12.48;;;11.10;93.40;;;;;;5097722;28;20039;-62
2022/01/02 06:06:21;;;;;;;17.45;11.88;;;11.20;93.50;;;;;;5094232;28;20051;-61
2022/01/02 06:08:48;;;;;;;18.05;12.55;;;11.20;93.50;;;;;;5088765;28;20043;-58
2022/01/02 06:11:15;;;;;;;16.92;12.68;;;11.10;93.50;;;;;;5096841;28;20046;-58
2022/01/02 06:13:42;;;;;;;19.80;12.60;;;11.10;93.50;;;;;;5119537;27;20058;-52
2022/01/02 06:16:11;;;;;;;17.45;13.23;;;11.20;93.50;;;;;;5108816;28;20489;-54
2022/01/02 06:18:38;;;;;;;16.92;12.35;;;11.20;93.50;;;;;;5106182;28;20031;-49
2022/01/02 06:21:05;;;;;;;14.10;11.90;;;11.20;93.50;;;;;;5124391;27;20027;-52
2022/01/02 06:23:32;;;;;;;13.98;11.40;;;11.20;93.50;;;;;;5099043;27;20024;-52
2022/01/02 06:25:59;;;;;;;18.27;12.05;;;11.20;93.50;;;;;;5084798;28;20028;-52
2022/01/02 06:28:26;;;;;;;17.70;11.68;;;11.20;93.50;;;;;;5105305;28;20031;-48
2022/01/02 06:30:54;;;;;;;16.88;11.60;;;11.20;93.50;;;;;;5113746;28;20044;-49
2022/01/02 06:33:21;;;;;;;21.25;12.00;;;11.20;93.50;;;;;;5107376;28;20042;-54
2022/01/02 06:35:49;;;;;;;13.65;10.98;;;11.30;93.50;;;;;;5112999;28;20483;-58
2022/01/02 06:38:20;;;;;;;18.67;12.13;;;11.30;93.50;;;;;;5110263;28;20080;-56
2022/01/02 06:40:47;;;;;;;16.95;11.95;;;11.20;93.50;;;;;;5113696;28;20019;-59
2022/01/02 06:43:16;;;;;;;16.73;12.07;;;11.20;93.50;;;;;;5111790;28;20411;-58
2022/01/02 06:45:44;;;;;;;20.10;13.88;;;11.20;93.50;;;;;;5113990;28;20092;-52
2022/01/02 06:48:11;;;;;;;17.77;11.25;;;11.30;93.60;;;;;;5110049;28;20023;-58
2022/01/02 06:50:36;;;;;;;22.33;13.50;;;11.30;93.60;;;;;;5094964;28;20476;-55
2022/01/02 06:53:05;;;;;;;16.48;11.80;;;11.30;93.50;;;;;;5112393;28;20031;-50
2022/01/02 06:55:32;;;;;;;21.52;12.57;;;11.30;93.60;;;;;;5092259;28;20047;-53
2022/01/02 06:58:00;;;;;;;19.38;12.48;;;11.30;93.60;;;;;;5111482;28;20031;-52
2022/01/02 07:00:26;;;;;;;20.42;13.48;;;11.30;93.50;;;;;;5111860;28;20102;-51
2022/01/02 07:02:53;;;;;;;19.38;12.27;;;11.30;93.60;;;;;;5113177;28;20051;-60
2022/01/02 07:05:23;;;;;;;22.08;13.02;;;11.40;93.60;;;;;;5095267;28;20036;-61
2022/01/02 07:07:52;;;;;;;18.40;13.02;;;11.40;93.60;;;;;;5083330;28;20036;-61
2022/01/02 07:10:18;;;;;;;18.83;11.50;;;11.30;93.60;;;;;;5093205;28;20104;-60
2022/01/02 07:12:44;;;;;;;20.52;12.82;;;11.30;93.60;;;;;;5103632;28;20461;-61
2022/01/02 07:15:11;;;;;;;15.32;11.82;;;11.40;93.70;;;;;;5116380;28;20103;-61
2022/01/02 07:17:37;;;;;;;16.27;11.45;;;11.40;93.70;;;;;;5095275;28;20060;-62
2022/01/02 07:20:09;;;;;;;19.95;11.45;;;11.40;93.70;;;;;;5119452;28;20054;-62
2022/01/02 07:22:36;;;;;;;22.55;12.00;;;11.40;93.70;;;;;;5104423;28;20467;-61
2022/01/02 07:25:07;;;;;;;17.55;11.23;;;11.40;93.70;;;;;;5100688;28;20051;-61
2022/01/02 07:27:34;;;;;;;21.45;12.75;;;11.40;93.70;;;;;;5110351;28;20090;-60
2022/01/02 07:30:01;;;;;;;17.80;11.30;;;11.40;93.70;;;;;;5111998;28;20532;-60
2022/01/02 07:32:28;;;;;;;19.15;12.20;;;11.40;93.70;;;;;;5091062;28;20040;-60
2022/01/02 07:34:55;;;;;;;18.60;10.98;;;11.40;93.70;;;;;;5094892;28;20038;-62
2022/01/02 07:37:22;;;;;;;22.50;12.48;;;11.40;93.70;;;;;;5108399;28;20024;-61
2022/01/02 07:39:49;;;;;;;20.48;11.40;;;11.40;93.70;;;;;;5111778;28;20472;-59
2022/01/02 07:42:15;;;;;;;17.63;10.07;;;11.40;93.70;;;;;;5093710;28;20034;-60
2022/01/02 07:44:44;;;;;;;17.67;10.80;;;11.40;93.70;;;;;;5094800;28;20051;-61
2022/01/02 07:47:10;;;;;;;18.27;9.57;;;11.40;93.70;;;;;;5099722;28;20110;-59
2022/01/02 07:49:37;;;;;;;15.23;10.10;;;11.40;93.70;;;;;;5092784;28;20465;-61
2022/01/02 07:52:04;;;;;;;14.70;8.40;;;11.40;93.80;;;;;;5084876;28;20040;-62
2022/01/02 07:54:31;;;;;;;11.60;7.32;;;11.40;93.80;;;;;;5089165;28;20142;-62
2022/01/02 07:56:59;;;;;;;10.15;7.25;;;11.40;93.70;;;;;;5100678;28;20043;-62
2022/01/02 07:59:26;;;;;;;11.82;8.07;;;11.40;93.80;;;;;;5110329;28;20028;-60
2022/01/02 08:01:53;;;;;;;15.10;7.97;;;11.50;93.80;;;;;;5111732;28;20023;-57
2022/01/02 08:04:19;;;;;;;15.10;7.10;;;11.40;93.80;;;;;;5091490;28;20684;-57
2022/01/02 08:06:46;;;;;;;11.40;7.93;;;11.50;93.80;;;;;;5103326;28;20044;-52
2022/01/02 08:09:13;;;;;;;10.70;7.10;;;11.50;93.80;;;;;;5112589;28;20106;-55
2022/01/02 08:11:40;;;;;;;14.15;7.68;;;11.50;93.80;;;;;;5110792;28;20414;-50
2022/01/02 08:14:07;;;;;;;10.52;7.03;;;11.50;93.80;;;;;;5109517;28;20484;-53
2022/01/02 08:16:33;;;;;;;13.50;7.05;;;11.50;93.80;;;;;;5092914;28;20036;-60
2022/01/02 08:19:01;;;;;;;10.43;6.40;;;11.50;93.80;;;;;;5101546;28;20024;-58
2022/01/02 08:21:27;;;;;;;13.93;7.22;;;11.50;93.80;;;;;;5114117;28;20036;-58
2022/01/02 08:23:54;;;;;;;12.98;7.25;;;11.60;93.90;;;;;;5085642;28;20091;-61
2022/01/02 08:26:20;;;;;;;14.73;6.80;;;11.60;93.90;;;;;;5085094;28;20035;-60
2022/01/02 08:28:47;;;;;;;10.60;6.97;;;11.60;93.80;;;;;;5112917;28;20467;-58
2022/01/02 08:31:13;;;;;;;14.27;6.13;;;11.60;93.80;;;;;;5115988;28;20349;-60
2022/01/02 08:33:38;;;;;;;15.30;6.93;;;11.60;93.80;;;;;;5113933;28;20051;-62
2022/01/02 08:36:05;;;;;;;17.08;6.05;;;11.60;93.80;;;;;;5088723;28;20448;-60
2022/01/02 08:38:34;;;;;;;11.07;5.30;;;11.70;93.80;;;;;;5096015;28;20032;-62
2022/01/02 08:41:01;;;;;;;11.40;5.15;;;11.70;93.80;;;;;;5106971;28;20035;-62
2022/01/02 08:43:27;;;;;;;11.93;5.78;;;11.70;93.70;;;;;;5115994;28;20062;-62
2022/01/02 08:45:53;;;;;;;13.18;4.85;;;11.70;93.70;;;;;;5114286;28;20039;-62
2022/01/02 08:48:20;;;;;;;11.68;6.03;;;11.70;93.60;;;;;;5110492;28;20082;-62
2022/01/02 08:50:46;;;;;;;10.95;5.70;;;11.70;93.50;;;;;;5114420;28;20036;-62
2022/01/02 08:53:13;;;;;;;10.20;4.97;;;11.70;93.50;;;;;;5113279;28;20032;-62
2022/01/02 08:55:40;;;;;;;10.10;5.30;;;11.70;93.50;;;;;;5109601;28;20717;-61
2022/01/02 08:58:08;;;;;;;13.30;4.97;;;11.80;93.50;;;;;;5098294;28;20047;-62
2022/01/02 09:00:36;;;;;;;10.40;5.20;;;11.70;93.40;;;;;;5107606;28;20073;-62
2022/01/02 09:03:04;;;;;;;9.73;6.00;;;11.70;93.30;;;;;;5105422;28;20027;-62
2022/01/02 09:05:30;;;;;;;12.23;5.90;;;11.70;93.30;;;;;;5104090;28;20399;-61
2022/01/02 09:07:57;;;;;;;15.38;5.95;;;11.70;93.30;;;;;;5086861;28;20032;-61
2022/01/02 09:10:24;;;;;;;11.07;5.75;;;11.80;93.40;;;;;;5104455;28;20036;-59
2022/01/02 09:12:51;;;;;;;12.30;5.30;;;11.80;93.30;;;;;;5104400;28;20027;-60
2022/01/02 09:15:18;;;;;;;12.90;6.10;;;11.80;93.20;;;;;;5109003;27;20380;-58
2022/01/02 09:17:45;;;;;;;16.35;5.82;;;11.80;93.00;;;;;;5099584;28;20028;-61
2022/01/02 09:20:13;;;;;;;8.93;5.03;;;11.70;92.80;;;;;;5082439;28;20024;-60
2022/01/02 09:22:40;;;;;;;11.98;5.75;;;11.80;92.80;;;;;;5111547;28;20024;-56
2022/01/02 09:25:10;;;;;;;11.40;5.15;;;11.80;92.70;;;;;;5083779;28;20031;-57
2022/01/02 09:27:37;;;;;;;13.27;5.35;;;11.70;92.60;;;;;;5080870;28;20036;-53
2022/01/02 09:30:08;;;;;;;12.73;4.95;;;11.70;92.60;;;;;;5077215;28;20049;-62
2022/01/02 09:32:35;;;;;;;11.15;4.80;;;11.70;92.60;;;;;;5096158;28;20108;-62
2022/01/02 09:35:04;;;;;;;12.60;4.80;;;11.70;92.50;;;;;;5095790;28;20050;-59
2022/01/02 09:37:30;;;;;;;9.18;4.63;;;11.60;92.50;;;;;;5101346;28;20046;-59
2022/01/02 09:39:57;;;;;;;10.70;5.68;;;11.60;92.50;;;;;;5112870;28;20161;-59
2022/01/02 09:42:24;;;;;;;12.45;5.30;;;11.60;92.50;;;;;;5113560;28;20047;-58
2022/01/02 09:44:51;;;;;;;8.40;5.03;;;11.70;92.50;;;;;;5112305;28;20042;-55
2022/01/02 09:47:20;;;;;;;8.18;4.78;;;11.70;92.50;;;;;;5098837;28;20026;-51
2022/01/02 09:49:50;;;;;;;8.40;4.68;;;11.70;92.40;;;;;;5101932;28;20028;-51
2022/01/02 09:52:17;;;;;;;10.43;4.88;;;11.70;92.40;;;;;;5098729;28;20115;-48
2022/01/02 09:54:45;;;;;;;10.02;5.05;;;11.60;92.40;;;;;;5104951;28;20043;-49
2022/01/02 09:57:13;;;;;;;7.95;4.78;;;11.70;92.30;;;;;;5113848;28;20028;-49
2022/01/02 09:59:39;;;;;;;8.07;5.20;;;11.70;92.30;;;;;;5112726;28;20073;-48
2022/01/02 10:02:07;;;;;;;17.17;5.05;;;11.70;92.20;;;;;;5107462;28;20092;-47
2022/01/02 10:04:59;;;;;;;10.18;5.25;;;11.70;92.40;;;;;;5095950;28;20110;-47
2022/01/02 10:07:33;;;;;;;10.07;5.47;;;11.80;92.00;;;;;;5092306;28;20043;-45
2022/01/02 10:10:11;;;;;;;9.82;6.00;;;11.80;91.90;;;;;;5103380;28;20042;-52
2022/01/02 10:12:38;;;;;;;11.00;5.38;;;11.80;91.80;;;;;;5101769;27;20476;-46
2022/01/02 10:15:11;;;;;;;12.02;5.22;;;11.90;91.70;;;;;;5116891;27;20059;-46
2022/01/02 10:17:55;;;;;;;9.48;4.90;;;11.90;91.60;;;;;;5105048;28;20031;-46
2022/01/02 10:20:34;;;;;;;11.05;4.38;;;11.90;91.50;;;;;;5089379;28;20477;-51
2022/01/02 10:23:25;;;;;;;9.43;4.50;;;11.90;91.60;;;;;;5101734;28;20601;-55
2022/01/02 10:25:59;;;;;;;7.70;5.00;;;12.00;91.60;;;;;;5085136;28;20690;-49
2022/01/02 10:28:44;;;;;;;9.02;4.03;;;12.00;91.50;;;;;;5108975;28;20027;-49
2022/01/02 10:31:15;;;;;;;5.78;3.53;;;12.20;91.50;;;;;;5110511;28;20031;-46
2022/01/02 10:34:01;;;;;;;7.60;3.47;;;12.40;91.40;;;;;;5102435;28;20067;-49
2022/01/02 10:36:48;;;;;;;6.60;3.45;;;12.50;91.00;;;;;;5112703;28;20069;-47
2022/01/02 10:39:23;;;;;;;6.63;3.30;;;12.40;90.60;;;;;;5100891;28;20020;-45
2022/01/02 10:41:56;;;;;;;6.68;3.13;;;12.40;90.50;;;;;;5105642;28;20024;-44
2022/01/02 10:44:31;;;;;;;4.35;3.20;;;12.30;90.50;;;;;;5093035;28;20055;-46
2022/01/02 10:47:16;;;;;;;5.63;2.90;;;12.20;90.50;;;;;;5089652;28;20028;-44
2022/01/02 10:50:05;;;;;;;7.15;3.83;;;12.10;90.50;;;;;;5092862;28;20027;-45
2022/01/02 10:52:45;;;;;;;6.75;3.92;;;12.10;90.70;;;;;;5084290;28;20092;-47
2022/01/02 10:55:19;;;;;;;4.55;3.28;;;12.00;90.70;;;;;;5111959;28;20112;-44
2022/01/02 10:57:49;;;;;;;11.90;3.60;;;11.90;90.70;;;;;;5104274;28;20031;-46
2022/01/02 11:00:20;;;;;;;7.20;4.20;;;11.90;90.80;;;;;;5102052;28;20028;-46
2022/01/02 11:02:49;;;;;;;6.43;3.72;;;11.90;91.00;;;;;;5099045;28;20036;-46
2022/01/02 11:05:23;;;;;;;8.70;4.60;;;11.80;91.20;;;;;;5107584;28;20135;-44
2022/01/02 11:07:52;;;;;;;9.00;4.18;;;11.80;91.40;;;;;;5104505;28;20067;-46
2022/01/02 11:10:21;;;;;;;6.80;4.67;;;11.80;91.50;;;;;;5104972;28;20027;-50
2022/01/02 11:12:53;;;;;;;9.73;5.10;;;11.80;91.70;;;;;;5115234;28;20027;-53
2022/01/02 11:15:21;;;;;;;10.15;5.93;;;11.80;91.70;;;;;;5115297;28;20023;-58
2022/01/02 11:17:48;;;;;;;8.27;6.00;;;11.80;91.80;;;;;;5111702;28;20028;-53
2022/01/02 11:20:21;;;;;;;8.07;6.03;;;11.80;91.90;;;;;;5108772;28;20038;-55
2022/01/02 11:23:12;;;;;;;8.57;6.05;;;11.80;92.10;;;;;;5100198;28;20020;-63
2022/01/02 11:26:07;;;;;;;9.43;6.20;;;11.90;92.10;;;;;;5094407;28;20097;-61
2022/01/02 11:28:52;;;;;;;6.95;5.28;;;11.90;92.00;;;;;;5077892;28;20366;-59
2022/01/02 11:31:39;;;;;;;8.35;5.90;;;11.90;91.90;;;;;;5112853;28;20035;-59
2022/01/02 11:34:25;;;;;;;9.65;5.78;;;11.90;91.70;;;;;;5094110;28;20035;-60
2022/01/02 11:36:53;;;;;;;7.80;4.70;;;11.90;92.00;;;;;;5092986;28;20032;-60
2022/01/02 11:39:20;;;;;;;6.88;4.60;;;11.90;91.80;;;;;;5111755;28;20027;-62
2022/01/02 11:42:04;;;;;;;8.50;5.75;;;11.90;91.80;;;;;;5089196;28;20054;-59
2022/01/02 11:44:51;;;;;;;9.25;5.57;;;11.90;91.60;;;;;;5112704;28;20051;-55
2022/01/02 11:47:41;;;;;;;8.25;5.35;;;11.90;91.60;;;;;;5111890;28;20509;-53
2022/01/02 11:50:42;;;;;;;10.15;4.85;;;11.90;91.70;;;;;;5095162;28;20034;-50
2022/01/02 11:53:35;;;;;;;9.90;5.35;;;11.90;91.80;;;;;;5098044;28;20093;-62
2022/01/02 11:56:03;;;;;;;7.18;5.10;;;11.90;91.50;;;;;;5101015;28;20340;-58
2022/01/02 11:58:42;;;;;;;9.23;5.47;;;11.80;91.60;;;;;;5116462;28;20351;-55
2022/01/02 12:01:08;;;;;;;12.30;5.28;;;11.70;91.60;;;;;;5110129;28;20081;-57
2022/01/02 12:03:53;;;;;;;10.60;5.70;;;11.70;91.80;;;;;;5098262;28;20108;-59
2022/01/02 12:06:33;;;;;;;8.05;5.78;;;11.60;91.90;;;;;;5088559;28;20038;-62
2022/01/02 12:09:03;;;;;;;10.15;7.13;;;11.60;92.10;;;;;;5114734;28;20032;-61
2022/01/02 12:11:42;;;;;;;10.18;6.55;;;11.60;92.20;;;;;;5087702;28;20043;-58
2022/01/02 12:14:27;;;;;;;8.50;6.10;;;11.60;92.30;;;;;;5104126;27;20093;-62
2022/01/02 12:16:58;;;;;;;10.38;6.53;;;11.60;92.40;;;;;;5115283;28;20023;-56
2022/01/02 12:19:26;;;;;;;10.50;6.25;;;11.50;92.40;;;;;;5089940;28;20039;-57
2022/01/02 12:22:41;;;;;;;11.80;6.45;;;11.50;92.40;;;;;;5100750;28;20035;-51
2022/01/02 12:25:15;;;;;;;15.27;7.50;;;11.50;92.40;;;;;;5026287;28;20491;-52
2022/01/02 12:27:55;;;;;;;11.05;6.25;;;11.50;92.30;;;;;;5088595;28;20051;-52
2022/01/02 12:30:23;;;;;;;16.67;8.02;;;11.60;92.30;;;;;;5087296;28;20114;-46
2022/01/02 12:32:50;;;;;;;17.42;6.82;;;11.60;92.10;;;;;;5099496;28;20453;-49
2022/01/02 12:35:17;;;;;;;16.90;6.93;;;11.70;92.00;;;;;;5099414;28;20024;-46
2022/01/02 12:37:45;;;;;;;11.45;6.47;;;11.70;91.80;;;;;;5103170;28;20104;-46
2022/01/02 12:40:17;;;;;;;14.40;7.10;;;11.70;91.60;;;;;;5098283;28;20032;-49
2022/01/02 12:42:45;;;;;;;11.55;5.90;;;11.70;91.20;;;;;;5114195;28;20028;-45
2022/01/02 12:45:15;;;;;;;12.05;6.18;;;11.60;91.10;;;;;;5114765;28;20047;-45
2022/01/02 12:47:51;;;;;;;8.75;5.40;;;11.60;91.00;;;;;;5114754;28;20027;-45
2022/01/02 12:50:26;;;;;;;11.25;5.50;;;11.60;90.90;;;;;;5097852;28;20102;-47
2022/01/02 12:52:54;;;;;;;11.05;5.38;;;11.50;90.80;;;;;;5107677;28;20081;-44
2022/01/02 12:55:21;;;;;;;9.88;4.80;;;11.60;90.60;;;;;;5078294;28;20365;-44
2022/01/02 12:57:50;;;;;;;12.65;4.78;;;11.60;90.60;;;;;;5082425;28;20062;-45
2022/01/02 13:00:23;;;;;;;10.23;4.65;;;11.60;90.50;;;;;;5081699;28;20064;-45